Time;durP1;ratioP1;P1;durP2;ratioP2;P2;SDS_P1;SDS_P2;PMS_P1;PMS_P2;Temp;Humidity;BMP_temperature;BMP_pressure;BME280_temperature;BME280_humidity;BME280_pressure;Samples;Min_cycle;Max_cycle;Signal;HPM_P1;HPM_P2
2023/01/19 00:02:24;;;;;;;5.75;2.72;;;2.70;99.90;;;;;;5067189;28;20051;-65
2023/01/19 00:04:50;;;;;;;4.13;2.15;;;2.80;99.90;;;;;;5063560;28;20041;-65
2023/01/19 00:07:16;;;;;;;4.45;2.50;;;2.80;99.90;;;;;;5062973;28;20036;-65
2023/01/19 00:09:42;;;;;;;6.20;2.05;;;2.70;99.90;;;;;;5068216;28;20575;-66
2023/01/19 00:12:08;;;;;;;5.18;1.98;;;2.90;99.90;;;;;;5048561;28;20772;-66
2023/01/19 00:14:34;;;;;;;3.70;1.55;;;2.80;99.90;;;;;;5061476;28;20040;-66
2023/01/19 00:17:00;;;;;;;1.40;1.20;;;2.80;99.90;;;;;;5065055;28;20051;-65
2023/01/19 00:19:27;;;;;;;3.83;1.48;;;2.80;99.90;;;;;;5085639;28;20040;-65
2023/01/19 00:21:53;;;;;;;1.95;1.00;;;2.70;99.90;;;;;;5060369;28;20051;-66
2023/01/19 00:24:19;;;;;;;2.60;0.90;;;2.70;99.90;;;;;;5083829;28;20037;-66
2023/01/19 00:26:44;;;;;;;1.60;0.90;;;2.60;99.90;;;;;;5064783;28;20388;-65
2023/01/19 00:29:12;;;;;;;1.95;0.80;;;2.60;99.90;;;;;;5049072;28;20512;-65
2023/01/19 00:31:38;;;;;;;2.08;1.40;;;2.50;99.90;;;;;;5065313;28;20040;-65
2023/01/19 00:34:05;;;;;;;2.53;1.60;;;2.50;99.90;;;;;;5065972;28;20529;-65
2023/01/19 00:36:31;;;;;;;2.85;1.80;;;2.40;99.90;;;;;;5082691;28;20043;-66
2023/01/19 00:38:57;;;;;;;2.20;1.70;;;2.40;99.90;;;;;;5079405;28;20075;-65
2023/01/19 00:42:38;;;;;;;2.85;2.00;;;2.40;99.90;;;;;;5079628;28;20486;-66
2023/01/19 00:44:10;;;;;;;2.25;2.00;;;2.30;99.90;;;;;;5081356;28;20043;-66
2023/01/19 00:46:36;;;;;;;2.33;1.83;;;2.30;99.90;;;;;;5064890;28;20037;-65
2023/01/19 00:49:02;;;;;;;3.40;2.05;;;2.20;99.90;;;;;;5034546;28;20221;-66
2023/01/19 00:51:28;;;;;;;2.05;1.73;;;2.10;99.90;;;;;;5062269;28;20551;-66
2023/01/19 00:53:54;;;;;;;2.08;1.55;;;2.10;99.90;;;;;;5064438;28;20044;-65
2023/01/19 00:56:19;;;;;;;2.58;1.60;;;2.10;99.90;;;;;;5066907;28;20040;-65
2023/01/19 00:58:45;;;;;;;2.40;1.63;;;2.10;99.90;;;;;;5078215;28;20512;-65
2023/01/19 01:01:12;;;;;;;3.33;1.80;;;2.10;99.90;;;;;;5065799;28;20554;-65
2023/01/19 01:03:38;;;;;;;2.15;1.30;;;2.10;99.90;;;;;;5063695;28;20049;-65
2023/01/19 01:06:07;;;;;;;2.58;1.27;;;2.10;99.90;;;;;;5047483;28;20407;-65
2023/01/19 01:08:34;;;;;;;2.35;1.65;;;2.10;99.90;;;;;;5062451;28;20488;-65
2023/01/19 01:11:00;;;;;;;3.00;1.63;;;2.10;99.90;;;;;;5083668;28;20102;-65
2023/01/19 01:13:26;;;;;;;2.47;1.60;;;2.00;99.90;;;;;;5059338;28;20040;-66
2023/01/19 01:15:53;;;;;;;3.05;1.88;;;2.10;99.90;;;;;;5062705;28;20062;-66
2023/01/19 01:18:20;;;;;;;2.53;1.95;;;2.10;99.90;;;;;;5060021;28;20055;-67
2023/01/19 01:20:46;;;;;;;2.92;2.30;;;2.10;99.90;;;;;;5067036;28;20051;-65
2023/01/19 01:23:12;;;;;;;3.00;2.28;;;2.10;99.90;;;;;;5067608;28;20407;-66
2023/01/19 01:25:38;;;;;;;4.22;2.60;;;2.10;99.90;;;;;;5076999;28;20049;-65
2023/01/19 01:28:07;;;;;;;3.05;2.75;;;2.10;99.90;;;;;;5061455;28;20040;-66
2023/01/19 01:30:39;;;;;;;3.85;3.35;;;2.10;99.90;;;;;;5079216;28;20044;-65
2023/01/19 01:33:06;;;;;;;3.97;3.20;;;2.10;99.90;;;;;;5064590;28;20048;-67
2023/01/19 01:35:32;;;;;;;4.90;4.20;;;2.10;99.90;;;;;;5079116;28;20032;-66
2023/01/19 01:37:59;;;;;;;5.53;4.03;;;2.10;99.90;;;;;;5048030;28;20487;-67
2023/01/19 01:40:26;;;;;;;5.88;3.83;;;2.10;99.90;;;;;;5061256;28;20443;-67
2023/01/19 01:42:52;;;;;;;6.05;4.30;;;2.10;99.90;;;;;;5068235;28;20048;-66
2023/01/19 01:45:34;;;;;;;6.03;4.68;;;2.10;99.90;;;;;;5079524;28;20028;-66
2023/01/19 01:48:26;;;;;;;7.57;4.40;;;2.10;99.90;;;;;;5077677;28;20052;-66
2023/01/19 01:51:24;;;;;;;7.20;5.00;;;2.10;99.90;;;;;;5044061;28;20136;-66
2023/01/19 01:54:06;;;;;;;8.15;5.03;;;2.10;99.90;;;;;;5080107;28;20093;-66
2023/01/19 01:56:41;;;;;;;7.05;5.05;;;2.10;99.90;;;;;;5060688;28;20275;-66
2023/01/19 01:59:12;;;;;;;7.03;5.95;;;2.10;99.90;;;;;;5076727;28;20044;-67
2023/01/19 02:04:22;;;;;;;;;;;2.10;99.90;;;;;;5060101;28;20151;-65
2023/01/19 02:15:03;;;;;;;;;;;2.10;99.90;;;;;;5054712;28;19920;-65
2023/01/19 02:17:29;;;;;;;;;;;2.10;99.90;;;;;;5043945;28;20453;-66
2023/01/19 02:19:56;;;;;;;;;;;2.10;99.90;;;;;;5052983;28;20312;-64
2023/01/19 02:22:34;;;;;;;;;;;2.10;99.90;;;;;;5061459;28;19951;-65
2023/01/19 02:25:02;;;;;;;;;;;2.10;99.90;;;;;;5053198;28;20329;-66
2023/01/19 02:27:28;;;;;;;;;;;2.10;99.90;;;;;;5063752;28;19916;-65
2023/01/19 02:29:54;;;;;;;;;;;2.10;99.90;;;;;;5047483;28;19981;-65
2023/01/19 02:32:19;;;;;;;;;;;2.00;99.90;;;;;;5068099;28;19963;-66
2023/01/19 02:34:45;;;;;;;;;;;2.10;99.90;;;;;;5057740;28;20014;-65
2023/01/19 02:37:11;;;;;;;;;;;2.10;99.90;;;;;;5066044;28;19916;-65
2023/01/19 02:39:50;;;;;;;;;;;2.10;99.90;;;;;;5062281;28;20325;-65
2023/01/19 02:42:19;;;;;;;;;;;2.10;99.90;;;;;;5078175;28;19920;-65
2023/01/19 02:44:47;;;;;;;;;;;2.20;99.90;;;;;;5049170;28;20373;-64
2023/01/19 02:47:12;;;;;;;;;;;2.10;99.90;;;;;;5059138;28;19916;-65
2023/01/19 02:49:38;;;;;;;;;;;2.20;99.90;;;;;;5085980;28;19923;-64
2023/01/19 02:52:04;;;;;;;;;;;2.20;99.90;;;;;;5062837;28;20010;-65
2023/01/19 02:54:45;;;;;;;;;;;2.20;99.90;;;;;;5052332;28;19927;-65
2023/01/19 02:57:30;;;;;;;;;;;2.30;99.90;;;;;;5064832;28;19962;-66
2023/01/19 03:00:20;;;;;;;;;;;2.20;99.90;;;;;;5048340;28;19931;-64
2023/01/19 03:02:55;;;;;;;;;;;2.20;99.90;;;;;;5069228;28;19935;-66
2023/01/19 03:05:41;;;;;;;;;;;2.20;99.90;;;;;;5062313;28;19916;-66
2023/01/19 03:08:16;;;;;;;;;;;2.30;99.90;;;;;;5066860;28;19923;-64
2023/01/19 03:11:01;;;;;;;;;;;2.30;99.90;;;;;;5046308;28;20007;-65
2023/01/19 03:13:30;;;;;;;;;;;2.20;99.90;;;;;;5061661;28;19972;-65
2023/01/19 03:16:02;;;;;;;;;;;2.20;99.90;;;;;;5084989;28;20082;-65
2023/01/19 03:18:30;;;;;;;;;;;2.20;99.90;;;;;;5067530;28;19924;-65
2023/01/19 03:20:57;;;;;;;;;;;2.20;99.90;;;;;;5064357;28;19916;-64
2023/01/19 03:23:26;;;;;;;;;;;2.20;99.90;;;;;;5084604;28;20364;-65
2023/01/19 03:25:52;;;;;;;;;;;2.20;99.90;;;;;;5066130;28;20315;-64
2023/01/19 03:28:18;;;;;;;;;;;2.10;99.90;;;;;;5068480;28;19916;-65
2023/01/19 03:30:46;;;;;;;;;;;2.10;99.90;;;;;;5078381;28;19920;-64
2023/01/19 03:33:14;;;;;;;;;;;2.00;99.90;;;;;;5065282;28;21237;-65
2023/01/19 03:35:47;;;;;;;;;;;2.00;99.90;;;;;;5088543;28;19916;-65
2023/01/19 03:38:18;;;;;;;;;;;2.00;99.90;;;;;;5064242;28;19970;-64
2023/01/19 03:40:46;;;;;;;;;;;1.90;99.90;;;;;;5080514;28;19917;-64
2023/01/19 03:43:14;;;;;;;;;;;1.90;99.90;;;;;;5064010;28;20229;-64
2023/01/19 03:45:40;;;;;;;;;;;1.90;99.90;;;;;;5051467;28;19920;-64
2023/01/19 03:48:06;;;;;;;;;;;1.90;99.90;;;;;;5050577;28;19921;-64
2023/01/19 03:50:31;;;;;;;;;;;1.90;99.90;;;;;;5084547;28;19951;-66
2023/01/19 03:53:11;;;;;;;;;;;1.90;99.90;;;;;;5065491;28;19955;-64
2023/01/19 03:55:37;;;;;;;;;;;1.90;99.90;;;;;;5063603;28;19962;-65
2023/01/19 03:58:03;;;;;;;;;;;1.90;99.90;;;;;;5065313;28;20354;-65
2023/01/19 04:00:29;;;;;;;;;;;1.90;99.90;;;;;;5070403;28;19970;-65
2023/01/19 04:02:55;;;;;;;;;;;1.90;99.90;;;;;;5082468;28;19916;-65
2023/01/19 04:05:21;;;;;;;;;;;1.90;99.90;;;;;;5083362;28;20024;-65
2023/01/19 04:07:47;;;;;;;;;;;1.90;99.90;;;;;;5080970;28;19961;-65
2023/01/19 04:10:14;;;;;;;;;;;1.80;99.90;;;;;;5052056;28;20014;-65
2023/01/19 04:12:40;;;;;;;;;;;1.80;99.90;;;;;;5064708;28;19926;-66
2023/01/19 04:15:06;;;;;;;;;;;1.90;99.90;;;;;;5068585;28;19920;-65
2023/01/19 04:17:32;;;;;;;;;;;1.90;99.90;;;;;;5047781;28;19955;-65
2023/01/19 04:19:57;;;;;;;;;;;1.80;99.90;;;;;;5064290;28;19920;-65
2023/01/19 04:22:23;;;;;;;;;;;1.80;99.90;;;;;;5068813;28;19916;-65
2023/01/19 04:24:49;;;;;;;;;;;1.80;99.90;;;;;;5080109;28;19923;-65
2023/01/19 04:27:15;;;;;;;;;;;1.90;99.90;;;;;;5081570;28;19926;-65
2023/01/19 04:29:41;;;;;;;;;;;1.90;99.90;;;;;;5064189;28;19916;-64
2023/01/19 04:32:06;;;;;;;;;;;1.90;99.90;;;;;;5068729;28;19916;-65
2023/01/19 04:34:32;;;;;;;;;;;1.90;99.90;;;;;;5080889;28;19916;-65
2023/01/19 04:36:58;;;;;;;;;;;2.00;99.90;;;;;;5065265;28;19923;-64
2023/01/19 04:39:23;;;;;;;;;;;2.20;99.90;;;;;;5084678;28;19916;-65
2023/01/19 04:41:50;;;;;;;;;;;2.20;99.90;;;;;;5066055;28;19951;-64
2023/01/19 04:44:16;;;;;;;;;;;2.20;99.90;;;;;;5050539;28;19916;-65
2023/01/19 04:46:42;;;;;;;;;;;2.30;99.90;;;;;;5062866;28;20360;-64
2023/01/19 04:49:08;;;;;;;;;;;2.30;99.90;;;;;;5058829;28;19943;-64
2023/01/19 04:51:34;;;;;;;;;;;2.30;99.90;;;;;;5082201;28;19920;-64
2023/01/19 04:54:00;;;;;;;;;;;2.30;99.90;;;;;;5079142;28;19976;-65
2023/01/19 04:56:26;;;;;;;;;;;2.40;99.90;;;;;;5086970;28;20732;-65
2023/01/19 04:58:52;;;;;;;;;;;2.40;99.90;;;;;;5061877;28;19920;-64
2023/01/19 05:01:17;;;;;;;;;;;2.40;99.90;;;;;;5068051;28;20287;-64
2023/01/19 05:03:43;;;;;;;;;;;2.40;99.90;;;;;;5065558;28;19922;-65
2023/01/19 05:06:08;;;;;;;;;;;2.40;99.90;;;;;;5084255;28;20360;-64
2023/01/19 05:08:34;;;;;;;;;;;2.50;99.90;;;;;;5060115;28;19920;-65
2023/01/19 05:11:00;;;;;;;;;;;2.50;99.90;;;;;;5064957;28;19934;-64
2023/01/19 05:13:25;;;;;;;;;;;2.50;99.90;;;;;;5068297;28;20394;-65
2023/01/19 05:15:51;;;;;;;;;;;2.50;99.90;;;;;;5066276;28;20405;-65
2023/01/19 05:18:17;;;;;;;;;;;2.50;99.90;;;;;;5060621;28;19920;-66
2023/01/19 05:20:43;;;;;;;;;;;2.50;99.90;;;;;;5060985;28;19969;-65
2023/01/19 05:23:08;;;;;;;;;;;2.60;99.90;;;;;;5063609;28;20427;-65
2023/01/19 05:25:34;;;;;;;;;;;2.60;99.90;;;;;;5060284;28;19920;-65
2023/01/19 05:27:59;;;;;;;;;;;2.60;99.90;;;;;;5063721;28;20454;-65
2023/01/19 05:30:25;;;;;;;;;;;2.70;99.90;;;;;;5049813;28;19920;-66
2023/01/19 05:32:51;;;;;;;;;;;2.70;99.90;;;;;;5061686;28;19923;-66
2023/01/19 05:35:16;;;;;;;;;;;2.70;99.90;;;;;;5070152;28;20243;-65
2023/01/19 05:37:43;;;;;;;;;;;2.70;99.90;;;;;;5063246;28;20113;-65
2023/01/19 05:40:09;;;;;;;;;;;2.70;99.90;;;;;;5063986;28;19915;-65
2023/01/19 05:42:35;;;;;;;;;;;2.70;99.90;;;;;;5084163;28;20009;-65
2023/01/19 05:45:01;;;;;;;;;;;2.70;99.90;;;;;;5067873;28;19916;-65
2023/01/19 05:47:30;;;;;;;;;;;2.70;99.90;;;;;;5067334;28;20057;-65
2023/01/19 05:49:55;;;;;;;;;;;2.80;99.90;;;;;;5081592;28;19915;-67
2023/01/19 05:52:23;;;;;;;;;;;2.90;99.90;;;;;;5064150;28;19938;-66
2023/01/19 05:54:50;;;;;;;;;;;2.90;99.90;;;;;;5058259;28;19927;-66
2023/01/19 05:57:16;;;;;;;;;;;2.90;99.90;;;;;;5064062;28;19915;-65
2023/01/19 05:59:42;;;;;;;;;;;3.00;99.90;;;;;;5066213;28;19927;-66
2023/01/19 06:02:07;;;;;;;;;;;3.00;99.90;;;;;;5064899;28;19916;-65
2023/01/19 06:04:33;;;;;;;;;;;3.00;99.90;;;;;;5063469;28;20430;-65
2023/01/19 06:06:58;;;;;;;;;;;3.00;99.90;;;;;;5083944;28;20101;-67
2023/01/19 06:09:24;;;;;;;;;;;3.00;99.90;;;;;;5079114;28;20368;-65
2023/01/19 06:11:50;;;;;;;;;;;2.90;99.90;;;;;;5061018;28;19920;-65
2023/01/19 06:14:15;;;;;;;;;;;2.90;99.90;;;;;;5064023;28;20322;-65
2023/01/19 06:16:41;;;;;;;;;;;2.90;99.90;;;;;;5082037;28;19977;-66
2023/01/19 06:19:07;;;;;;;;;;;2.90;99.90;;;;;;5060179;28;19984;-65
2023/01/19 06:21:33;;;;;;;;;;;2.80;99.90;;;;;;5061681;28;19989;-65
2023/01/19 06:23:58;;;;;;;;;;;2.90;99.90;;;;;;5054900;28;19916;-66
2023/01/19 06:26:25;;;;;;;;;;;2.80;99.90;;;;;;5051376;28;19938;-67
2023/01/19 06:28:51;;;;;;;;;;;2.70;99.90;;;;;;5063519;28;19923;-66
2023/01/19 06:31:16;;;;;;;;;;;2.80;99.90;;;;;;5064387;28;19923;-65
2023/01/19 06:33:42;;;;;;;;;;;2.70;99.90;;;;;;5046035;28;20461;-67
2023/01/19 06:36:08;;;;;;;;;;;2.60;99.90;;;;;;5064960;28;19916;-65
2023/01/19 06:38:34;;;;;;;;;;;2.50;99.90;;;;;;5064158;28;20015;-66
2023/01/19 06:41:01;;;;;;;;;;;2.50;99.90;;;;;;5065780;28;19999;-66
2023/01/19 06:43:27;;;;;;;;;;;2.50;99.90;;;;;;5060480;28;19962;-65
2023/01/19 06:45:53;;;;;;;;;;;2.40;99.90;;;;;;5064735;28;19916;-66
2023/01/19 06:48:19;;;;;;;;;;;2.30;99.90;;;;;;5063931;28;19978;-66
2023/01/19 06:50:45;;;;;;;;;;;2.30;99.90;;;;;;5058048;28;20256;-65
2023/01/19 06:53:11;;;;;;;;;;;2.30;99.90;;;;;;5067598;28;20410;-66
2023/01/19 06:55:38;;;;;;;;;;;2.30;99.90;;;;;;5046372;28;20360;-66
2023/01/19 06:58:04;;;;;;;;;;;2.30;99.90;;;;;;5048707;28;19920;-66
2023/01/19 07:00:29;;;;;;;;;;;2.30;99.90;;;;;;5066955;28;19930;-66
2023/01/19 07:02:55;;;;;;;;;;;2.30;99.90;;;;;;5066810;28;20011;-67
2023/01/19 07:05:21;;;;;;;;;;;2.30;99.90;;;;;;5062703;28;19916;-67
2023/01/19 07:07:54;;;;;;;;;;;2.40;99.90;;;;;;5065254;28;19916;-66
2023/01/19 07:10:20;;;;;;;;;;;2.50;99.90;;;;;;5062808;28;20348;-66
2023/01/19 07:12:46;;;;;;;;;;;2.50;99.90;;;;;;5047664;28;20833;-66
2023/01/19 07:15:13;;;;;;;;;;;2.60;99.90;;;;;;5062067;28;19924;-67
2023/01/19 07:17:40;;;;;;;;;;;2.70;99.90;;;;;;5064807;28;20284;-66
2023/01/19 07:20:08;;;;;;;;;;;2.70;99.90;;;;;;5040358;28;19916;-67
2023/01/19 07:22:33;;;;;;;;;;;2.70;99.90;;;;;;5082209;28;19943;-66
2023/01/19 07:25:00;;;;;;;;;;;2.70;99.90;;;;;;5084187;28;19924;-66
2023/01/19 07:27:27;;;;;;;;;;;2.60;99.90;;;;;;5064994;28;19920;-66
2023/01/19 07:29:53;;;;;;;;;;;2.70;99.90;;;;;;5061730;28;19927;-67
2023/01/19 07:32:18;;;;;;;;;;;2.70;99.90;;;;;;5061417;28;19916;-66
2023/01/19 07:34:44;;;;;;;;;;;2.70;99.90;;;;;;5082460;28;19996;-66
2023/01/19 07:37:10;;;;;;;;;;;2.80;99.90;;;;;;5067451;28;19916;-66
2023/01/19 07:39:36;;;;;;;;;;;2.70;99.90;;;;;;5063917;28;19927;-68
2023/01/19 07:42:01;;;;;;;;;;;2.70;99.90;;;;;;5054240;28;19916;-66
2023/01/19 07:44:27;;;;;;;;;;;2.70;99.90;;;;;;5069875;28;19998;-67
2023/01/19 07:46:53;;;;;;;;;;;2.60;99.90;;;;;;5048150;28;19920;-67
2023/01/19 07:49:19;;;;;;;;;;;2.60;99.90;;;;;;5048710;28;19920;-66
2023/01/19 07:51:45;;;;;;;;;;;2.50;99.90;;;;;;5081891;28;19920;-66
2023/01/19 07:54:11;;;;;;;;;;;2.50;99.90;;;;;;5050557;28;20436;-66
2023/01/19 07:56:36;;;;;;;;;;;2.50;99.90;;;;;;5070097;28;19916;-66
2023/01/19 07:59:02;;;;;;;;;;;2.50;99.90;;;;;;5083033;28;20256;-66
2023/01/19 08:01:28;;;;;;;;;;;2.50;99.90;;;;;;5077919;28;19916;-66
2023/01/19 08:03:54;;;;;;;;;;;2.50;99.90;;;;;;5061803;28;20368;-66
2023/01/19 08:06:21;;;;;;;;;;;2.60;99.90;;;;;;5059437;28;19927;-66
2023/01/19 08:08:46;;;;;;;;;;;2.50;99.90;;;;;;5082156;28;19980;-66
2023/01/19 08:11:12;;;;;;;;;;;2.50;99.90;;;;;;5066144;28;20428;-65
2023/01/19 08:13:38;;;;;;;;;;;2.50;99.90;;;;;;5066855;28;19971;-67
2023/01/19 08:16:03;;;;;;;;;;;2.40;99.90;;;;;;5073086;28;19927;-66
2023/01/19 08:18:29;;;;;;;;;;;2.40;99.90;;;;;;5043971;28;19968;-65
2023/01/19 08:20:57;;;;;;;;;;;2.40;99.90;;;;;;5042168;28;20406;-65
2023/01/19 08:23:22;;;;;;;;;;;2.40;99.90;;;;;;5048772;28;19920;-66
2023/01/19 08:25:48;;;;;;;;;;;2.40;99.90;;;;;;5038811;28;20450;-65
2023/01/19 08:28:14;;;;;;;;;;;2.40;99.90;;;;;;5046484;28;19916;-65
2023/01/19 08:30:42;;;;;;;;;;;2.30;99.90;;;;;;5058072;28;19961;-66
2023/01/19 08:33:07;;;;;;;;;;;2.40;99.90;;;;;;5040794;28;19917;-67
2023/01/19 08:35:35;;;;;;;;;;;2.40;99.90;;;;;;5052237;28;19942;-65
2023/01/19 08:38:01;;;;;;;;;;;2.50;99.90;;;;;;5050411;28;19955;-65
2023/01/19 08:40:28;;;;;;;;;;;2.60;99.90;;;;;;5064737;28;19921;-66
2023/01/19 08:42:59;;;;;;;;;;;2.60;99.90;;;;;;5044427;28;19990;-66
2023/01/19 08:45:26;;;;;;;;;;;2.70;99.90;;;;;;5046097;28;19916;-66
2023/01/19 08:47:51;;;;;;;;;;;2.80;99.90;;;;;;5045098;28;19924;-64
2023/01/19 08:50:17;;;;;;;;;;;2.80;99.90;;;;;;5064944;28;19917;-65
2023/01/19 08:52:42;;;;;;;;;;;2.90;99.90;;;;;;5027862;28;20335;-65
2023/01/19 08:55:10;;;;;;;;;;;2.90;99.90;;;;;;5064948;28;19917;-65
2023/01/19 08:57:35;;;;;;;;;;;2.90;99.90;;;;;;5061093;28;19924;-65
2023/01/19 09:00:01;;;;;;;;;;;2.90;99.90;;;;;;5064035;28;19920;-65
2023/01/19 09:02:27;;;;;;;;;;;3.00;99.90;;;;;;5043781;28;20380;-65
2023/01/19 09:04:53;;;;;;;;;;;3.00;99.90;;;;;;5046102;28;19967;-65
2023/01/19 09:07:18;;;;;;;;;;;3.00;99.90;;;;;;5041666;28;19924;-65
2023/01/19 09:09:44;;;;;;;;;;;3.00;99.90;;;;;;5043791;28;19927;-65
2023/01/19 09:12:09;;;;;;;;;;;3.00;99.90;;;;;;5045286;28;19921;-65
2023/01/19 09:14:35;;;;;;;;;;;2.90;99.90;;;;;;5063631;28;20269;-65
2023/01/19 09:17:01;;;;;;;;;;;2.90;99.90;;;;;;5056937;28;19924;-64
2023/01/19 09:19:26;;;;;;;;;;;2.90;99.90;;;;;;5059635;28;19972;-65
2023/01/19 09:21:53;;;;;;;;;;;2.90;99.90;;;;;;5085372;28;20395;-65
2023/01/19 09:24:18;;;;;;;;;;;2.90;99.90;;;;;;5060889;28;19977;-65
2023/01/19 09:26:44;;;;;;;;;;;2.90;99.90;;;;;;5054076;28;19928;-65
2023/01/19 09:29:10;;;;;;;;;;;2.80;99.90;;;;;;5081826;28;20466;-65
2023/01/19 09:31:36;;;;;;;;;;;2.80;99.90;;;;;;5065720;28;20029;-65
2023/01/19 09:34:01;;;;;;;;;;;2.80;99.90;;;;;;5063782;28;19920;-66
2023/01/19 09:36:27;;;;;;;;;;;2.90;99.90;;;;;;5066966;28;19923;-65
2023/01/19 09:38:52;;;;;;;;;;;2.80;99.90;;;;;;5080668;28;19986;-65
2023/01/19 09:41:20;;;;;;;;;;;2.80;99.90;;;;;;5064376;28;20448;-65
2023/01/19 09:43:56;;;;;;;;;;;2.90;99.90;;;;;;5052563;28;20002;-65
2023/01/19 09:46:39;;;;;;;;;;;3.00;99.90;;;;;;5050627;28;20019;-65
2023/01/19 09:49:10;;;;;;;;;;;3.00;99.90;;;;;;5082191;28;19916;-65
2023/01/19 09:51:38;;;;;;;;;;;3.10;99.90;;;;;;5057705;28;20334;-65
2023/01/19 09:54:03;;;;;;;;;;;3.20;99.90;;;;;;5053911;28;19917;-65
2023/01/19 09:56:29;;;;;;;;;;;3.30;99.90;;;;;;5061830;28;19920;-65
2023/01/19 09:58:55;;;;;;;;;;;3.50;99.90;;;;;;5052773;28;19924;-66
2023/01/19 10:01:36;;;;;;;;;;;3.70;99.90;;;;;;5053580;28;19916;-65
2023/01/19 10:04:04;;;;;;;;;;;3.70;99.90;;;;;;5083869;28;19999;-65
2023/01/19 10:06:30;;;;;;;;;;;3.80;99.90;;;;;;5065301;28;19945;-65
2023/01/19 10:09:07;;;;;;;;;;;3.80;99.90;;;;;;5065858;28;20446;-65
2023/01/19 10:11:35;;;;;;;;;;;3.80;99.90;;;;;;5049122;28;19923;-65
2023/01/19 10:14:03;;;;;;;;;;;3.90;99.90;;;;;;5067816;28;19923;-65
2023/01/19 10:16:50;;;;;;;;;;;3.90;99.90;;;;;;5073562;28;19924;-66
2023/01/19 10:19:21;;;;;;;;;;;4.00;99.90;;;;;;5029077;28;19920;-64
2023/01/19 10:21:48;;;;;;;;;;;4.10;99.90;;;;;;5043622;28;20291;-65
2023/01/19 10:24:20;;;;;;;;;;;4.10;99.90;;;;;;5042800;28;20014;-64
2023/01/19 10:26:47;;;;;;;;;;;4.10;99.90;;;;;;5042069;28;19955;-64
2023/01/19 10:29:15;;;;;;;;;;;4.10;99.90;;;;;;5060847;28;19939;-64
2023/01/19 10:31:43;;;;;;;;;;;4.10;99.90;;;;;;5043998;28;19920;-64
2023/01/19 10:34:17;;;;;;;;;;;4.20;99.90;;;;;;5028894;28;19920;-64
2023/01/19 10:36:44;;;;;;;;;;;4.20;99.90;;;;;;5044193;28;20364;-64
2023/01/19 10:39:12;;;;;;;;;;;4.20;99.90;;;;;;5039362;28;19925;-65
2023/01/19 10:41:38;;;;;;;;;;;4.20;99.90;;;;;;5040800;28;19920;-64
2023/01/19 10:44:04;;;;;;;;;;;4.30;99.90;;;;;;5042803;28;19917;-65
2023/01/19 10:46:46;;;;;;;;;;;4.30;99.90;;;;;;5043066;28;19963;-64
2023/01/19 10:49:31;;;;;;;;;;;4.30;99.90;;;;;;5043110;28;19964;-65
2023/01/19 10:51:57;;;;;;;;;;;4.40;99.90;;;;;;5044349;28;19916;-65
2023/01/19 10:54:24;;;;;;;;;;;4.40;99.90;;;;;;5042835;28;19920;-65
2023/01/19 10:56:54;;;;;;;;;;;4.40;99.90;;;;;;5045503;28;19924;-65
2023/01/19 10:59:28;;;;;;;;;;;4.40;99.90;;;;;;5045404;28;20011;-64
2023/01/19 11:02:25;;;;;;;;;;;4.50;99.90;;;;;;5044903;28;20253;-64
2023/01/19 11:04:55;;;;;;;;;;;4.60;99.90;;;;;;5030122;28;19920;-65
2023/01/19 11:07:22;;;;;;;;;;;4.60;99.90;;;;;;5041425;28;20264;-65
2023/01/19 11:09:48;;;;;;;;;;;4.60;99.90;;;;;;5065351;28;19921;-65
2023/01/19 11:12:17;;;;;;;;;;;4.60;99.90;;;;;;5054684;28;20388;-64
2023/01/19 11:14:42;;;;;;;;;;;4.70;99.90;;;;;;5045114;28;19928;-64
2023/01/19 11:17:16;;;;;;;;;;;4.70;99.90;;;;;;5062005;28;19920;-64
2023/01/19 11:19:42;;;;;;;;;;;4.70;99.90;;;;;;5086188;28;19920;-65
2023/01/19 11:22:21;;;;;;;;;;;4.70;99.90;;;;;;5083096;28;20236;-64
2023/01/19 11:24:47;;;;;;;;;;;4.70;99.90;;;;;;5067151;28;19916;-64
2023/01/19 11:27:16;;;;;;;;;;;4.70;99.90;;;;;;5083819;28;19970;-64
2023/01/19 11:29:51;;;;;;;;;;;4.70;99.90;;;;;;5067171;28;19923;-64
2023/01/19 11:32:19;;;;;;;;;;;4.70;99.90;;;;;;5068005;28;19947;-64
2023/01/19 11:34:44;;;;;;;;;;;4.70;99.90;;;;;;5071735;28;19928;-65
2023/01/19 11:37:19;;;;;;;;;;;4.80;99.90;;;;;;5055059;28;19969;-64
2023/01/19 11:39:46;;;;;;;;;;;4.70;99.90;;;;;;5054337;28;19923;-65
2023/01/19 11:42:12;;;;;;;;;;;4.80;99.90;;;;;;5052543;28;19916;-65
2023/01/19 11:44:41;;;;;;;;;;;4.80;99.90;;;;;;5083142;28;19923;-65
2023/01/19 11:47:20;;;;;;;;;;;4.80;99.90;;;;;;5051130;28;19939;-64
2023/01/19 11:49:48;;;;;;;;;;;4.80;99.90;;;;;;5064573;28;20280;-65
2023/01/19 11:52:17;;;;;;;;;;;4.80;99.90;;;;;;5066427;28;20272;-65
2023/01/19 11:55:09;;;;;;;;;;;4.80;99.90;;;;;;5061668;28;19920;-65
2023/01/19 11:57:34;;;;;;;;;;;4.80;99.90;;;;;;5044983;28;20010;-65
2023/01/19 12:00:03;;;;;;;;;;;4.80;99.90;;;;;;5061834;28;20019;-64
2023/01/19 12:02:39;;;;;;;;;;;4.80;99.90;;;;;;5063621;28;19966;-65
2023/01/19 12:05:06;;;;;;;;;;;4.80;99.90;;;;;;5082472;28;19916;-65
2023/01/19 12:07:33;;;;;;;;;;;4.90;99.90;;;;;;5049576;28;19926;-64
2023/01/19 12:10:19;;;;;;;;;;;4.90;99.90;;;;;;5085259;28;19961;-65
2023/01/19 12:12:45;;;;;;;;;;;4.90;99.90;;;;;;5065102;28;19920;-64
2023/01/19 12:15:17;;;;;;;;;;;4.90;99.90;;;;;;5078895;28;20003;-64
2023/01/19 12:17:48;;;;;;;;;;;4.80;99.90;;;;;;5067514;28;19974;-64
2023/01/19 12:20:20;;;;;;;;;;;4.60;99.90;;;;;;5050208;28;19920;-65
2023/01/19 12:22:59;;;;;;;;;;;4.60;99.90;;;;;;5051587;28;19947;-65
2023/01/19 12:25:30;;;;;;;;;;;4.40;99.90;;;;;;5051605;28;20352;-65
2023/01/19 12:27:56;;;;;;;;;;;4.40;99.90;;;;;;5067229;28;19916;-65
2023/01/19 12:30:23;;;;;;;;;;;4.40;99.90;;;;;;5067011;28;19931;-64
2023/01/19 12:32:50;;;;;;;;;;;4.30;99.90;;;;;;5050184;28;19917;-65
2023/01/19 12:35:34;;;;;;;;;;;4.20;99.90;;;;;;5047784;28;20422;-65
2023/01/19 12:38:00;;;;;;;;;;;4.10;99.90;;;;;;5047692;28;20364;-66
2023/01/19 12:40:27;;;;;;;;;;;4.10;99.90;;;;;;5045041;28;19956;-65
2023/01/19 12:42:58;;;;;;;;;;;4.20;99.90;;;;;;5035595;28;19920;-67
2023/01/19 12:45:27;;;;;;;;;;;4.20;99.90;;;;;;5053170;28;20269;-65
2023/01/19 12:47:53;;;;;;;;;;;4.20;99.90;;;;;;5048837;28;20322;-64
2023/01/19 12:50:22;;;;;;;;;;;4.30;99.90;;;;;;5047386;28;19916;-65
2023/01/19 12:52:50;;;;;;;;;;;4.20;99.90;;;;;;5049861;28;20352;-64
2023/01/19 12:55:18;;;;;;;;;;;4.20;99.90;;;;;;5047217;28;19927;-65
2023/01/19 12:57:59;;;;;;;;;;;4.20;99.90;;;;;;5047294;28;19920;-66
2023/01/19 13:00:24;;;;;;;;;;;4.20;99.90;;;;;;5047716;28;20012;-65
2023/01/19 13:03:10;;;;;;;;;;;4.10;99.90;;;;;;5048214;28;20427;-65
2023/01/19 13:05:39;;;;;;;;;;;4.20;99.90;;;;;;5047928;28;20004;-65
2023/01/19 13:08:05;;;;;;;;;;;4.20;99.90;;;;;;5063545;28;19916;-64
2023/01/19 13:10:49;;;;;;;;;;;4.20;99.90;;;;;;5049271;28;19969;-64
2023/01/19 13:13:19;;;;;;;;;;;4.30;99.90;;;;;;5049409;28;20384;-64
2023/01/19 13:15:45;;;;;;;;;;;4.40;99.90;;;;;;5047903;28;19916;-65
2023/01/19 13:18:18;;;;;;;;;;;4.50;99.90;;;;;;5079129;28;20407;-65
2023/01/19 13:21:03;;;;;;;;;;;4.60;99.90;;;;;;5068158;28;20341;-65
2023/01/19 13:23:44;;;;;;;;;;;4.80;99.90;;;;;;5067253;28;20036;-66
2023/01/19 13:26:13;;;;;;;;;;;4.80;99.90;;;;;;5056361;28;19945;-65
2023/01/19 13:28:43;;;;;;;;;;;4.90;99.90;;;;;;5054920;28;20240;-64
2023/01/19 13:31:09;;;;;;;;;;;4.90;99.90;;;;;;5080948;28;20343;-64
2023/01/19 13:33:38;;;;;;;;;;;4.90;99.90;;;;;;5057630;28;19920;-65
2023/01/19 13:36:13;;;;;;;;;;;4.90;99.90;;;;;;5065535;28;19920;-65
2023/01/19 13:38:40;;;;;;;;;;;5.00;99.90;;;;;;5064109;28;19921;-65
2023/01/19 13:41:05;;;;;;;;;;;5.00;99.90;;;;;;5058308;28;19923;-64
2023/01/19 13:43:34;;;;;;;;;;;5.00;99.90;;;;;;5061035;28;19923;-64
2023/01/19 13:46:00;;;;;;;;;;;5.30;99.90;;;;;;5081961;28;19920;-65
2023/01/19 13:48:26;;;;;;;;;;;5.30;99.90;;;;;;5060498;28;19916;-65
2023/01/19 13:50:55;;;;;;;;;;;5.10;99.90;;;;;;5061891;28;20014;-64
2023/01/19 13:53:23;;;;;;;;;;;4.90;99.90;;;;;;5082632;28;19924;-65
2023/01/19 13:56:04;;;;;;;;;;;4.90;99.90;;;;;;5064412;28;19920;-65
2023/01/19 13:58:30;;;;;;;;;;;4.60;99.90;;;;;;5061615;28;19935;-65
2023/01/19 14:00:56;;;;;;;;;;;4.50;99.90;;;;;;5082760;28;19999;-64
2023/01/19 14:03:22;;;;;;;;;;;4.50;99.90;;;;;;5063940;28;20023;-65
2023/01/19 14:05:49;;;;;;;;;;;4.50;99.90;;;;;;5062025;28;19959;-64
2023/01/19 14:08:16;;;;;;;;;;;4.50;99.90;;;;;;5063073;28;19916;-65
2023/01/19 14:10:44;;;;;;;;;;;4.50;99.90;;;;;;5064361;28;19920;-65
2023/01/19 14:13:15;;;;;;;;;;;4.40;99.90;;;;;;5080094;28;19920;-65
2023/01/19 14:15:40;;;;;;;;;;;4.50;99.90;;;;;;5068791;28;20254;-65
2023/01/19 14:18:26;;;;;;;;;;;4.40;99.90;;;;;;5039203;28;20014;-65
2023/01/19 14:21:04;;;;;;;;;;;4.40;99.90;;;;;;5053834;28;20360;-64
2023/01/19 14:23:42;;;;;;;;;;;4.30;99.90;;;;;;5044637;28;19920;-65
2023/01/19 14:26:27;;;;;;;;;;;4.30;99.90;;;;;;5081458;28;19974;-65
2023/01/19 14:28:53;;;;;;;;;;;4.20;99.90;;;;;;5062205;28;19920;-64
2023/01/19 14:31:23;;;;;;;;;;;4.10;99.90;;;;;;5063586;28;19917;-64
2023/01/19 14:33:50;;;;;;;;;;;4.00;99.90;;;;;;5081189;28;19916;-65
2023/01/19 14:36:27;;;;;;;;;;;4.00;99.90;;;;;;5077895;28;19916;-64